sensor_id;sensor_type;location;lat;lon;timestamp;temperature;humidity
17170;DHT22;8700;48.222;16.342;2022-12-18T00:01:59;1.80;99.90
17170;DHT22;8700;48.222;16.342;2022-12-18T00:05:21;1.80;99.90
17170;DHT22;8700;48.222;16.342;2022-12-18T00:13:37;1.70;99.90
17170;DHT22;8700;48.222;16.342;2022-12-18T00:17:00;1.40;99.90
17170;DHT22;8700;48.222;16.342;2022-12-18T00:20:22;1.30;99.90
17170;DHT22;8700;48.222;16.342;2022-12-18T00:23:46;1.20;99.90
17170;DHT22;8700;48.222;16.342;2022-12-18T00:27:08;1.10;99.90
17170;DHT22;8700;48.222;16.342;2022-12-18T00:30:29;1.10;99.90
17170;DHT22;8700;48.222;16.342;2022-12-18T00:33:53;1.00;99.90
17170;DHT22;8700;48.222;16.342;2022-12-18T00:37:15;1.00;99.90
17170;DHT22;8700;48.222;16.342;2022-12-18T00:40:36;1.00;99.90
17170;DHT22;8700;48.222;16.342;2022-12-18T00:43:58;0.90;99.90
17170;DHT22;8700;48.222;16.342;2022-12-18T00:47:18;0.90;99.90
17170;DHT22;8700;48.222;16.342;2022-12-18T00:50:41;0.90;99.90
17170;DHT22;8700;48.222;16.342;2022-12-18T00:54:03;0.90;99.90
17170;DHT22;8700;48.222;16.342;2022-12-18T00:57:24;0.80;99.90
17170;DHT22;8700;48.222;16.342;2022-12-18T01:00:46;0.70;99.90
17170;DHT22;8700;48.222;16.342;2022-12-18T01:04:07;0.70;99.90
17170;DHT22;8700;48.222;16.342;2022-12-18T01:07:29;0.70;99.90
17170;DHT22;8700;48.222;16.342;2022-12-18T01:10:51;0.60;99.90
17170;DHT22;8700;48.222;16.342;2022-12-18T01:14:12;0.50;99.90
17170;DHT22;8700;48.222;16.342;2022-12-18T01:17:40;0.50;99.90
17170;DHT22;8700;48.222;16.342;2022-12-18T01:21:06;0.50;99.90
17170;DHT22;8700;48.222;16.342;2022-12-18T01:24:29;0.50;99.90
17170;DHT22;8700;48.222;16.342;2022-12-18T01:27:58;0.40;99.90
17170;DHT22;8700;48.222;16.342;2022-12-18T01:31:21;0.30;99.90
17170;DHT22;8700;48.222;16.342;2022-12-18T01:34:44;0.20;99.90
17170;DHT22;8700;48.222;16.342;2022-12-18T01:38:06;0.20;99.90
17170;DHT22;8700;48.222;16.342;2022-12-18T01:41:30;0.10;99.90
17170;DHT22;8700;48.222;16.342;2022-12-18T01:45:31;0.10;99.90
17170;DHT22;8700;48.222;16.342;2022-12-18T01:48:55;-0.10;99.90
17170;DHT22;8700;48.222;16.342;2022-12-18T01:52:17;0.00;99.90
17170;DHT22;8700;48.222;16.342;2022-12-18T01:55:42;0.00;99.90
17170;DHT22;8700;48.222;16.342;2022-12-18T01:59:08;-0.10;99.90
17170;DHT22;8700;48.222;16.342;2022-12-18T02:02:30;-0.10;99.90
17170;DHT22;8700;48.222;16.342;2022-12-18T02:05:59;0.00;99.90
17170;DHT22;8700;48.222;16.342;2022-12-18T02:09:29;-0.10;99.90
17170;DHT22;8700;48.222;16.342;2022-12-18T02:12:56;-0.10;99.90
17170;DHT22;8700;48.222;16.342;2022-12-18T02:16:27;-0.20;99.90
17170;DHT22;8700;48.222;16.342;2022-12-18T02:20:04;-0.30;99.90
17170;DHT22;8700;48.222;16.342;2022-12-18T02:23:41;-0.30;99.90
17170;DHT22;8700;48.222;16.342;2022-12-18T02:27:09;-0.10;99.90
17170;DHT22;8700;48.222;16.342;2022-12-18T02:30:32;-0.10;99.90
17170;DHT22;8700;48.222;16.342;2022-12-18T02:33:56;-0.10;99.90
17170;DHT22;8700;48.222;16.342;2022-12-18T02:37:20;-0.10;99.90
17170;DHT22;8700;48.222;16.342;2022-12-18T02:40:43;0.10;99.90
17170;DHT22;8700;48.222;16.342;2022-12-18T02:44:09;0.00;99.90
17170;DHT22;8700;48.222;16.342;2022-12-18T02:47:32;0.00;99.90
17170;DHT22;8700;48.222;16.342;2022-12-18T02:50:59;0.10;99.90
17170;DHT22;8700;48.222;16.342;2022-12-18T02:54:38;0.00;99.90
17170;DHT22;8700;48.222;16.342;2022-12-18T02:58:05;0.00;99.90
17170;DHT22;8700;48.222;16.342;2022-12-18T03:01:34;0.00;99.90
17170;DHT22;8700;48.222;16.342;2022-12-18T03:05:01;-0.10;99.90
17170;DHT22;8700;48.222;16.342;2022-12-18T03:08:26;-0.20;99.90
17170;DHT22;8700;48.222;16.342;2022-12-18T03:11:52;-0.30;99.90
17170;DHT22;8700;48.222;16.342;2022-12-18T03:15:36;-0.30;99.90
17170;DHT22;8700;48.222;16.342;2022-12-18T03:19:02;-0.30;99.90
17170;DHT22;8700;48.222;16.342;2022-12-18T03:22:26;-0.40;99.90
17170;DHT22;8700;48.222;16.342;2022-12-18T03:25:52;-0.30;99.90
17170;DHT22;8700;48.222;16.342;2022-12-18T03:29:19;-0.30;99.90
17170;DHT22;8700;48.222;16.342;2022-12-18T03:32:47;-0.40;99.90
17170;DHT22;8700;48.222;16.342;2022-12-18T03:36:11;-0.40;99.90
17170;DHT22;8700;48.222;16.342;2022-12-18T03:39:33;-0.50;99.90
17170;DHT22;8700;48.222;16.342;2022-12-18T03:42:59;-0.40;99.90
17170;DHT22;8700;48.222;16.342;2022-12-18T03:50:56;-0.20;99.90
17170;DHT22;8700;48.222;16.342;2022-12-18T03:54:19;-0.30;99.90
17170;DHT22;8700;48.222;16.342;2022-12-18T03:57:41;-0.30;99.90
17170;DHT22;8700;48.222;16.342;2022-12-18T04:01:05;-0.30;99.90
17170;DHT22;8700;48.222;16.342;2022-12-18T04:04:29;-0.40;99.90
17170;DHT22;8700;48.222;16.342;2022-12-18T04:07:51;-0.40;99.90
17170;DHT22;8700;48.222;16.342;2022-12-18T04:11:15;-0.40;99.90
17170;DHT22;8700;48.222;16.342;2022-12-18T04:14:42;-0.30;99.90
17170;DHT22;8700;48.222;16.342;2022-12-18T04:18:04;-0.30;99.90
17170;DHT22;8700;48.222;16.342;2022-12-18T04:21:25;-0.30;99.90
17170;DHT22;8700;48.222;16.342;2022-12-18T04:24:47;-0.20;99.90
17170;DHT22;8700;48.222;16.342;2022-12-18T04:28:10;-0.60;99.90
17170;DHT22;8700;48.222;16.342;2022-12-18T04:31:32;-0.80;99.90
17170;DHT22;8700;48.222;16.342;2022-12-18T04:34:53;-0.80;99.90
17170;DHT22;8700;48.222;16.342;2022-12-18T04:38:15;-0.80;99.90
17170;DHT22;8700;48.222;16.342;2022-12-18T04:41:36;-0.70;99.90
17170;DHT22;8700;48.222;16.342;2022-12-18T04:44:59;-0.60;99.90
17170;DHT22;8700;48.222;16.342;2022-12-18T04:48:20;-0.60;99.90
17170;DHT22;8700;48.222;16.342;2022-12-18T04:51:41;-0.80;99.90
17170;DHT22;8700;48.222;16.342;2022-12-18T04:55:03;-0.90;99.90
17170;DHT22;8700;48.222;16.342;2022-12-18T04:58:24;-0.80;99.90
17170;DHT22;8700;48.222;16.342;2022-12-18T05:01:47;-0.80;99.90
17170;DHT22;8700;48.222;16.342;2022-12-18T05:05:08;-0.70;99.90
17170;DHT22;8700;48.222;16.342;2022-12-18T05:08:30;-0.90;99.90
17170;DHT22;8700;48.222;16.342;2022-12-18T05:11:51;-1.10;99.90
17170;DHT22;8700;48.222;16.342;2022-12-18T05:15:13;-1.30;99.90
17170;DHT22;8700;48.222;16.342;2022-12-18T05:18:37;-1.40;99.90
17170;DHT22;8700;48.222;16.342;2022-12-18T05:21:58;-1.30;99.90
17170;DHT22;8700;48.222;16.342;2022-12-18T05:25:20;-1.40;99.90
17170;DHT22;8700;48.222;16.342;2022-12-18T05:28:41;-1.50;99.90
17170;DHT22;8700;48.222;16.342;2022-12-18T05:32:02;-1.40;99.90
17170;DHT22;8700;48.222;16.342;2022-12-18T05:35:25;-1.50;99.90
17170;DHT22;8700;48.222;16.342;2022-12-18T05:38:47;-1.50;99.90
17170;DHT22;8700;48.222;16.342;2022-12-18T05:42:14;-1.30;99.90
17170;DHT22;8700;48.222;16.342;2022-12-18T05:45:37;-1.50;99.90
17170;DHT22;8700;48.222;16.342;2022-12-18T05:48:59;-1.60;99.90
17170;DHT22;8700;48.222;16.342;2022-12-18T05:52:23;-1.70;99.90
17170;DHT22;8700;48.222;16.342;2022-12-18T05:55:45;-1.70;99.90
17170;DHT22;8700;48.222;16.342;2022-12-18T05:59:07;-1.80;99.90
17170;DHT22;8700;48.222;16.342;2022-12-18T06:02:28;-1.80;99.90
17170;DHT22;8700;48.222;16.342;2022-12-18T06:05:49;-1.70;99.90
17170;DHT22;8700;48.222;16.342;2022-12-18T06:09:12;-1.60;99.90
17170;DHT22;8700;48.222;16.342;2022-12-18T06:12:33;-1.70;99.90
17170;DHT22;8700;48.222;16.342;2022-12-18T06:15:54;-1.90;99.90
17170;DHT22;8700;48.222;16.342;2022-12-18T06:19:16;-1.90;99.90
17170;DHT22;8700;48.222;16.342;2022-12-18T06:22:37;-2.00;99.90
17170;DHT22;8700;48.222;16.342;2022-12-18T06:26:04;-2.20;99.90
17170;DHT22;8700;48.222;16.342;2022-12-18T06:29:25;-2.10;99.90
17170;DHT22;8700;48.222;16.342;2022-12-18T06:32:48;-2.00;99.90
17170;DHT22;8700;48.222;16.342;2022-12-18T06:36:11;-1.90;99.90
17170;DHT22;8700;48.222;16.342;2022-12-18T06:39:34;-1.80;99.90
17170;DHT22;8700;48.222;16.342;2022-12-18T06:42:57;-1.80;99.90
17170;DHT22;8700;48.222;16.342;2022-12-18T06:46:19;-1.70;99.90
17170;DHT22;8700;48.222;16.342;2022-12-18T06:49:40;-1.70;99.90
17170;DHT22;8700;48.222;16.342;2022-12-18T06:53:01;-1.60;99.90
17170;DHT22;8700;48.222;16.342;2022-12-18T06:56:22;-1.40;99.90
17170;DHT22;8700;48.222;16.342;2022-12-18T06:59:45;-1.40;99.90
17170;DHT22;8700;48.222;16.342;2022-12-18T07:03:06;-1.40;99.90
17170;DHT22;8700;48.222;16.342;2022-12-18T07:06:28;-1.50;99.90
17170;DHT22;8700;48.222;16.342;2022-12-18T07:09:49;-1.50;99.90
17170;DHT22;8700;48.222;16.342;2022-12-18T07:13:11;-1.30;99.90
17170;DHT22;8700;48.222;16.342;2022-12-18T07:16:34;-1.10;99.90
17170;DHT22;8700;48.222;16.342;2022-12-18T07:19:55;-1.10;99.90
17170;DHT22;8700;48.222;16.342;2022-12-18T07:23:16;-1.20;99.90
17170;DHT22;8700;48.222;16.342;2022-12-18T07:26:38;-1.30;99.90
17170;DHT22;8700;48.222;16.342;2022-12-18T07:29:59;-1.40;99.90
17170;DHT22;8700;48.222;16.342;2022-12-18T07:33:22;-1.40;99.90
17170;DHT22;8700;48.222;16.342;2022-12-18T07:36:43;-1.40;99.90
17170;DHT22;8700;48.222;16.342;2022-12-18T07:40:05;-1.40;99.90
17170;DHT22;8700;48.222;16.342;2022-12-18T07:43:26;-1.40;99.90
17170;DHT22;8700;48.222;16.342;2022-12-18T07:46:48;-1.30;99.90
17170;DHT22;8700;48.222;16.342;2022-12-18T07:50:11;-1.20;99.90
17170;DHT22;8700;48.222;16.342;2022-12-18T07:53:34;-1.20;99.90
17170;DHT22;8700;48.222;16.342;2022-12-18T07:56:55;-1.00;99.90
17170;DHT22;8700;48.222;16.342;2022-12-18T08:00:17;-0.90;99.90
17170;DHT22;8700;48.222;16.342;2022-12-18T08:03:39;-0.90;99.90
17170;DHT22;8700;48.222;16.342;2022-12-18T08:07:02;-0.70;99.90
17170;DHT22;8700;48.222;16.342;2022-12-18T08:10:23;-0.60;99.90
17170;DHT22;8700;48.222;16.342;2022-12-18T08:13:45;-0.60;99.90
17170;DHT22;8700;48.222;16.342;2022-12-18T08:17:06;-0.70;99.90
17170;DHT22;8700;48.222;16.342;2022-12-18T08:20:27;-0.60;99.90
17170;DHT22;8700;48.222;16.342;2022-12-18T08:23:50;-0.60;99.90
17170;DHT22;8700;48.222;16.342;2022-12-18T08:27:12;-0.50;99.90
17170;DHT22;8700;48.222;16.342;2022-12-18T08:30:33;-0.40;99.90
17170;DHT22;8700;48.222;16.342;2022-12-18T08:33:55;-0.40;99.90
17170;DHT22;8700;48.222;16.342;2022-12-18T08:37:17;-0.30;99.90
17170;DHT22;8700;48.222;16.342;2022-12-18T08:40:40;-0.30;99.90
17170;DHT22;8700;48.222;16.342;2022-12-18T08:44:01;-0.20;99.90
17170;DHT22;8700;48.222;16.342;2022-12-18T08:47:41;-0.10;99.90
17170;DHT22;8700;48.222;16.342;2022-12-18T08:51:02;0.00;99.90
17170;DHT22;8700;48.222;16.342;2022-12-18T08:54:24;0.10;99.90
17170;DHT22;8700;48.222;16.342;2022-12-18T08:57:49;0.20;99.90
17170;DHT22;8700;48.222;16.342;2022-12-18T09:01:11;0.20;99.90
17170;DHT22;8700;48.222;16.342;2022-12-18T09:04:33;0.20;99.90
17170;DHT22;8700;48.222;16.342;2022-12-18T09:07:54;0.30;99.90
17170;DHT22;8700;48.222;16.342;2022-12-18T09:11:21;0.30;99.90
17170;DHT22;8700;48.222;16.342;2022-12-18T09:14:44;0.40;99.90
17170;DHT22;8700;48.222;16.342;2022-12-18T09:18:05;0.40;99.90
17170;DHT22;8700;48.222;16.342;2022-12-18T09:21:28;0.40;99.90
17170;DHT22;8700;48.222;16.342;2022-12-18T09:24:50;0.30;99.90
17170;DHT22;8700;48.222;16.342;2022-12-18T09:28:13;0.40;99.90
17170;DHT22;8700;48.222;16.342;2022-12-18T09:31:38;0.40;99.90
17170;DHT22;8700;48.222;16.342;2022-12-18T09:35:00;0.40;99.90
17170;DHT22;8700;48.222;16.342;2022-12-18T09:38:22;0.50;99.90
17170;DHT22;8700;48.222;16.342;2022-12-18T09:41:46;0.50;99.90
17170;DHT22;8700;48.222;16.342;2022-12-18T09:45:13;0.70;99.90
17170;DHT22;8700;48.222;16.342;2022-12-18T09:53:24;0.80;99.90
17170;DHT22;8700;48.222;16.342;2022-12-18T09:56:48;0.70;99.90
17170;DHT22;8700;48.222;16.342;2022-12-18T10:04:43;0.70;99.90
17170;DHT22;8700;48.222;16.342;2022-12-18T10:08:12;0.60;99.90
17170;DHT22;8700;48.222;16.342;2022-12-18T10:11:41;0.70;99.90
17170;DHT22;8700;48.222;16.342;2022-12-18T10:15:10;0.80;99.90
17170;DHT22;8700;48.222;16.342;2022-12-18T10:18:49;0.60;99.90
17170;DHT22;8700;48.222;16.342;2022-12-18T10:26:32;0.60;99.90
17170;DHT22;8700;48.222;16.342;2022-12-18T10:29:55;0.70;99.90
17170;DHT22;8700;48.222;16.342;2022-12-18T10:33:19;0.60;99.90
17170;DHT22;8700;48.222;16.342;2022-12-18T10:36:40;0.80;99.90
17170;DHT22;8700;48.222;16.342;2022-12-18T10:40:09;0.80;99.90
17170;DHT22;8700;48.222;16.342;2022-12-18T10:43:32;0.50;99.90
17170;DHT22;8700;48.222;16.342;2022-12-18T10:47:03;0.60;99.90
17170;DHT22;8700;48.222;16.342;2022-12-18T10:50:27;0.80;99.90
17170;DHT22;8700;48.222;16.342;2022-12-18T10:53:54;0.80;99.90
17170;DHT22;8700;48.222;16.342;2022-12-18T10:57:28;0.90;99.90
17170;DHT22;8700;48.222;16.342;2022-12-18T11:01:07;0.70;99.90
17170;DHT22;8700;48.222;16.342;2022-12-18T11:04:31;0.60;99.90
17170;DHT22;8700;48.222;16.342;2022-12-18T11:07:53;0.60;99.90
17170;DHT22;8700;48.222;16.342;2022-12-18T11:11:19;0.70;99.90
17170;DHT22;8700;48.222;16.342;2022-12-18T11:14:45;0.60;99.90
17170;DHT22;8700;48.222;16.342;2022-12-18T11:18:16;0.40;99.90
17170;DHT22;8700;48.222;16.342;2022-12-18T11:21:41;0.60;99.90
17170;DHT22;8700;48.222;16.342;2022-12-18T11:25:06;0.80;99.90
17170;DHT22;8700;48.222;16.342;2022-12-18T11:28:39;0.90;99.90
17170;DHT22;8700;48.222;16.342;2022-12-18T11:32:27;0.80;99.90
17170;DHT22;8700;48.222;16.342;2022-12-18T11:35:53;0.90;99.90
17170;DHT22;8700;48.222;16.342;2022-12-18T11:39:19;0.70;99.90
17170;DHT22;8700;48.222;16.342;2022-12-18T11:47:21;1.00;99.90
17170;DHT22;8700;48.222;16.342;2022-12-18T11:55:12;1.00;99.90
17170;DHT22;8700;48.222;16.342;2022-12-18T11:58:46;0.70;99.90
17170;DHT22;8700;48.222;16.342;2022-12-18T12:02:21;0.70;99.90
17170;DHT22;8700;48.222;16.342;2022-12-18T12:05:51;0.80;99.90
17170;DHT22;8700;48.222;16.342;2022-12-18T12:09:22;0.80;99.90
17170;DHT22;8700;48.222;16.342;2022-12-18T12:12:57;0.60;99.90
17170;DHT22;8700;48.222;16.342;2022-12-18T12:16:24;0.60;99.90
17170;DHT22;8700;48.222;16.342;2022-12-18T12:19:50;0.70;99.90
17170;DHT22;8700;48.222;16.342;2022-12-18T12:23:18;0.60;99.90
17170;DHT22;8700;48.222;16.342;2022-12-18T12:26:48;0.50;99.90
17170;DHT22;8700;48.222;16.342;2022-12-18T12:30:18;0.60;99.90
17170;DHT22;8700;48.222;16.342;2022-12-18T12:33:47;0.70;99.90
17170;DHT22;8700;48.222;16.342;2022-12-18T12:37:22;0.60;99.90
17170;DHT22;8700;48.222;16.342;2022-12-18T12:45:13;0.60;99.90
17170;DHT22;8700;48.222;16.342;2022-12-18T12:48:42;0.70;99.90
17170;DHT22;8700;48.222;16.342;2022-12-18T12:52:07;0.70;99.90
17170;DHT22;8700;48.222;16.342;2022-12-18T13:00:04;0.70;99.90
17170;DHT22;8700;48.222;16.342;2022-12-18T13:03:42;0.60;99.90
17170;DHT22;8700;48.222;16.342;2022-12-18T13:07:14;0.70;99.90
17170;DHT22;8700;48.222;16.342;2022-12-18T13:10:38;0.50;99.90
17170;DHT22;8700;48.222;16.342;2022-12-18T13:14:00;0.40;99.90
17170;DHT22;8700;48.222;16.342;2022-12-18T13:17:28;0.40;99.90
17170;DHT22;8700;48.222;16.342;2022-12-18T13:21:08;0.30;99.90
17170;DHT22;8700;48.222;16.342;2022-12-18T13:24:32;0.30;99.90
17170;DHT22;8700;48.222;16.342;2022-12-18T13:28:06;0.30;99.90
17170;DHT22;8700;48.222;16.342;2022-12-18T13:31:58;0.30;99.90
17170;DHT22;8700;48.222;16.342;2022-12-18T13:35:40;0.30;99.90
17170;DHT22;8700;48.222;16.342;2022-12-18T13:39:31;0.30;99.90
17170;DHT22;8700;48.222;16.342;2022-12-18T13:42:53;0.20;99.90
17170;DHT22;8700;48.222;16.342;2022-12-18T13:46:42;0.40;99.90
17170;DHT22;8700;48.222;16.342;2022-12-18T13:50:11;0.30;99.90
17170;DHT22;8700;48.222;16.342;2022-12-18T13:53:43;0.30;99.90
17170;DHT22;8700;48.222;16.342;2022-12-18T13:57:26;0.30;99.90
17170;DHT22;8700;48.222;16.342;2022-12-18T14:00:47;0.30;99.90
17170;DHT22;8700;48.222;16.342;2022-12-18T14:04:10;0.20;99.90
17170;DHT22;8700;48.222;16.342;2022-12-18T14:07:31;0.30;99.90
17170;DHT22;8700;48.222;16.342;2022-12-18T14:10:53;0.30;99.90
17170;DHT22;8700;48.222;16.342;2022-12-18T14:14:18;0.30;99.90
17170;DHT22;8700;48.222;16.342;2022-12-18T14:17:40;0.40;99.90
17170;DHT22;8700;48.222;16.342;2022-12-18T14:25:36;0.40;99.90
17170;DHT22;8700;48.222;16.342;2022-12-18T14:28:58;0.40;99.90
17170;DHT22;8700;48.222;16.342;2022-12-18T14:32:22;0.30;99.90
17170;DHT22;8700;48.222;16.342;2022-12-18T14:35:53;0.20;99.90
17170;DHT22;8700;48.222;16.342;2022-12-18T14:39:17;0.10;99.90
17170;DHT22;8700;48.222;16.342;2022-12-18T14:42:38;0.10;99.90
17170;DHT22;8700;48.222;16.342;2022-12-18T14:46:00;0.20;99.90
17170;DHT22;8700;48.222;16.342;2022-12-18T14:49:27;0.20;99.90
17170;DHT22;8700;48.222;16.342;2022-12-18T14:52:50;0.10;99.90
17170;DHT22;8700;48.222;16.342;2022-12-18T14:56:22;0.10;99.90
17170;DHT22;8700;48.222;16.342;2022-12-18T14:59:44;0.20;99.90
17170;DHT22;8700;48.222;16.342;2022-12-18T15:03:07;0.10;99.90
17170;DHT22;8700;48.222;16.342;2022-12-18T15:06:33;0.20;99.90
17170;DHT22;8700;48.222;16.342;2022-12-18T15:10:03;0.20;99.90
17170;DHT22;8700;48.222;16.342;2022-12-18T15:13:25;0.20;99.90
17170;DHT22;8700;48.222;16.342;2022-12-18T15:16:52;0.20;99.90
17170;DHT22;8700;48.222;16.342;2022-12-18T15:20:15;0.20;99.90
17170;DHT22;8700;48.222;16.342;2022-12-18T15:23:47;0.20;99.90
17170;DHT22;8700;48.222;16.342;2022-12-18T15:27:24;0.20;99.90
17170;DHT22;8700;48.222;16.342;2022-12-18T15:30:59;0.20;99.90
17170;DHT22;8700;48.222;16.342;2022-12-18T15:34:22;0.20;99.90
17170;DHT22;8700;48.222;16.342;2022-12-18T15:37:45;0.20;99.90
17170;DHT22;8700;48.222;16.342;2022-12-18T15:41:11;0.20;99.90
17170;DHT22;8700;48.222;16.342;2022-12-18T15:44:34;0.20;99.90
17170;DHT22;8700;48.222;16.342;2022-12-18T15:47:55;0.20;99.90
17170;DHT22;8700;48.222;16.342;2022-12-18T15:56:11;0.10;99.90
17170;DHT22;8700;48.222;16.342;2022-12-18T15:59:51;0.00;99.90
17170;DHT22;8700;48.222;16.342;2022-12-18T16:03:13;0.10;99.90
17170;DHT22;8700;48.222;16.342;2022-12-18T16:06:35;0.10;99.90
17170;DHT22;8700;48.222;16.342;2022-12-18T16:09:56;0.20;99.90
17170;DHT22;8700;48.222;16.342;2022-12-18T16:13:19;0.20;99.90
17170;DHT22;8700;48.222;16.342;2022-12-18T16:16:41;0.30;99.90
17170;DHT22;8700;48.222;16.342;2022-12-18T16:20:03;0.40;99.90
17170;DHT22;8700;48.222;16.342;2022-12-18T16:23:27;0.40;99.90
17170;DHT22;8700;48.222;16.342;2022-12-18T16:26:48;0.40;99.90
17170;DHT22;8700;48.222;16.342;2022-12-18T16:30:14;0.40;99.90
17170;DHT22;8700;48.222;16.342;2022-12-18T16:33:36;0.40;99.90
17170;DHT22;8700;48.222;16.342;2022-12-18T16:36:58;0.40;99.90
17170;DHT22;8700;48.222;16.342;2022-12-18T16:40:20;0.50;99.90
17170;DHT22;8700;48.222;16.342;2022-12-18T16:43:42;0.50;99.90
17170;DHT22;8700;48.222;16.342;2022-12-18T16:47:07;0.50;99.90
17170;DHT22;8700;48.222;16.342;2022-12-18T16:50:32;0.60;99.90
17170;DHT22;8700;48.222;16.342;2022-12-18T16:53:55;0.50;99.90
17170;DHT22;8700;48.222;16.342;2022-12-18T16:57:21;0.50;99.90
17170;DHT22;8700;48.222;16.342;2022-12-18T17:00:49;0.50;99.90
17170;DHT22;8700;48.222;16.342;2022-12-18T17:04:12;0.50;99.90
17170;DHT22;8700;48.222;16.342;2022-12-18T17:07:35;0.70;99.90
17170;DHT22;8700;48.222;16.342;2022-12-18T17:11:04;0.60;99.90
17170;DHT22;8700;48.222;16.342;2022-12-18T17:14:34;0.50;99.90
17170;DHT22;8700;48.222;16.342;2022-12-18T17:17:57;0.60;99.90
17170;DHT22;8700;48.222;16.342;2022-12-18T17:21:25;0.60;99.90
17170;DHT22;8700;48.222;16.342;2022-12-18T17:24:46;0.60;99.90
17170;DHT22;8700;48.222;16.342;2022-12-18T17:28:10;0.70;99.90
17170;DHT22;8700;48.222;16.342;2022-12-18T17:31:33;0.60;99.90
17170;DHT22;8700;48.222;16.342;2022-12-18T17:34:56;0.80;99.90
17170;DHT22;8700;48.222;16.342;2022-12-18T17:38:19;0.80;99.90
17170;DHT22;8700;48.222;16.342;2022-12-18T17:41:41;0.80;99.90
17170;DHT22;8700;48.222;16.342;2022-12-18T17:45:03;0.80;99.90
17170;DHT22;8700;48.222;16.342;2022-12-18T17:48:29;0.90;99.90
17170;DHT22;8700;48.222;16.342;2022-12-18T17:51:51;0.90;99.90
17170;DHT22;8700;48.222;16.342;2022-12-18T17:55:14;0.90;99.90
17170;DHT22;8700;48.222;16.342;2022-12-18T17:58:36;0.80;99.90
17170;DHT22;8700;48.222;16.342;2022-12-18T18:06:47;0.70;99.90
17170;DHT22;8700;48.222;16.342;2022-12-18T18:10:08;0.80;99.90
17170;DHT22;8700;48.222;16.342;2022-12-18T18:13:31;0.80;99.90
17170;DHT22;8700;48.222;16.342;2022-12-18T18:17:10;0.70;99.90
17170;DHT22;8700;48.222;16.342;2022-12-18T18:20:31;0.80;99.90
17170;DHT22;8700;48.222;16.342;2022-12-18T18:23:53;0.70;99.90
17170;DHT22;8700;48.222;16.342;2022-12-18T18:27:14;0.70;99.90
17170;DHT22;8700;48.222;16.342;2022-12-18T18:30:37;0.60;99.90
17170;DHT22;8700;48.222;16.342;2022-12-18T18:33:58;0.60;99.90
17170;DHT22;8700;48.222;16.342;2022-12-18T18:37:19;0.70;99.90
17170;DHT22;8700;48.222;16.342;2022-12-18T18:40:40;0.70;99.90
17170;DHT22;8700;48.222;16.342;2022-12-18T18:44:02;0.70;99.90
17170;DHT22;8700;48.222;16.342;2022-12-18T18:47:25;0.70;99.90
17170;DHT22;8700;48.222;16.342;2022-12-18T18:50:55;0.80;99.90
17170;DHT22;8700;48.222;16.342;2022-12-18T18:54:16;0.70;99.90
17170;DHT22;8700;48.222;16.342;2022-12-18T18:57:41;0.60;99.90
17170;DHT22;8700;48.222;16.342;2022-12-18T19:01:05;0.30;99.90
17170;DHT22;8700;48.222;16.342;2022-12-18T19:04:29;0.40;99.90
17170;DHT22;8700;48.222;16.342;2022-12-18T19:07:51;0.40;99.90
17170;DHT22;8700;48.222;16.342;2022-12-18T19:11:13;0.40;99.90
17170;DHT22;8700;48.222;16.342;2022-12-18T19:15:03;0.70;99.90
17170;DHT22;8700;48.222;16.342;2022-12-18T19:18:25;0.70;99.90
17170;DHT22;8700;48.222;16.342;2022-12-18T19:21:47;0.50;99.90
17170;DHT22;8700;48.222;16.342;2022-12-18T19:25:09;0.60;99.90
17170;DHT22;8700;48.222;16.342;2022-12-18T19:28:34;0.80;99.90
17170;DHT22;8700;48.222;16.342;2022-12-18T19:31:59;1.00;99.90
17170;DHT22;8700;48.222;16.342;2022-12-18T19:35:21;0.90;99.90
17170;DHT22;8700;48.222;16.342;2022-12-18T19:38:45;0.70;99.90
17170;DHT22;8700;48.222;16.342;2022-12-18T19:42:06;0.60;99.90
17170;DHT22;8700;48.222;16.342;2022-12-18T19:45:28;0.70;99.90
17170;DHT22;8700;48.222;16.342;2022-12-18T19:48:49;0.90;99.90
17170;DHT22;8700;48.222;16.342;2022-12-18T19:52:10;0.70;99.90
17170;DHT22;8700;48.222;16.342;2022-12-18T19:55:39;0.80;99.90
17170;DHT22;8700;48.222;16.342;2022-12-18T19:59:02;0.80;99.90
17170;DHT22;8700;48.222;16.342;2022-12-18T20:02:23;0.70;99.90
17170;DHT22;8700;48.222;16.342;2022-12-18T20:05:45;0.60;99.90
17170;DHT22;8700;48.222;16.342;2022-12-18T20:09:06;0.50;99.90
17170;DHT22;8700;48.222;16.342;2022-12-18T20:12:29;0.70;99.90
17170;DHT22;8700;48.222;16.342;2022-12-18T20:15:51;1.00;99.90
17170;DHT22;8700;48.222;16.342;2022-12-18T20:19:12;1.20;99.90
17170;DHT22;8700;48.222;16.342;2022-12-18T20:22:34;1.10;99.90
17170;DHT22;8700;48.222;16.342;2022-12-18T20:25:55;1.00;99.90
17170;DHT22;8700;48.222;16.342;2022-12-18T20:29:18;0.80;99.90
17170;DHT22;8700;48.222;16.342;2022-12-18T20:32:40;0.80;99.90
17170;DHT22;8700;48.222;16.342;2022-12-18T20:36:03;0.90;99.90
17170;DHT22;8700;48.222;16.342;2022-12-18T20:39:24;0.80;99.90
17170;DHT22;8700;48.222;16.342;2022-12-18T20:42:46;1.00;99.90
17170;DHT22;8700;48.222;16.342;2022-12-18T20:46:09;1.20;99.90
17170;DHT22;8700;48.222;16.342;2022-12-18T20:49:32;1.30;99.90
17170;DHT22;8700;48.222;16.342;2022-12-18T20:52:54;1.20;99.90
17170;DHT22;8700;48.222;16.342;2022-12-18T20:56:17;1.00;99.90
17170;DHT22;8700;48.222;16.342;2022-12-18T20:59:41;1.10;99.90
17170;DHT22;8700;48.222;16.342;2022-12-18T21:03:04;0.90;99.90
17170;DHT22;8700;48.222;16.342;2022-12-18T21:06:26;1.00;99.90
17170;DHT22;8700;48.222;16.342;2022-12-18T21:09:47;1.10;99.90
17170;DHT22;8700;48.222;16.342;2022-12-18T21:13:09;1.20;99.90
17170;DHT22;8700;48.222;16.342;2022-12-18T21:16:30;1.30;99.90
17170;DHT22;8700;48.222;16.342;2022-12-18T21:24:28;1.10;99.90
17170;DHT22;8700;48.222;16.342;2022-12-18T21:27:49;1.10;99.90
17170;DHT22;8700;48.222;16.342;2022-12-18T21:31:10;1.10;99.90
17170;DHT22;8700;48.222;16.342;2022-12-18T21:34:32;1.30;99.90
17170;DHT22;8700;48.222;16.342;2022-12-18T21:37:53;1.00;99.90
17170;DHT22;8700;48.222;16.342;2022-12-18T21:41:16;1.20;99.90
17170;DHT22;8700;48.222;16.342;2022-12-18T21:44:51;1.20;99.90
17170;DHT22;8700;48.222;16.342;2022-12-18T21:48:12;1.20;99.90
17170;DHT22;8700;48.222;16.342;2022-12-18T21:51:34;1.20;99.90
17170;DHT22;8700;48.222;16.342;2022-12-18T21:54:59;1.10;99.90
17170;DHT22;8700;48.222;16.342;2022-12-18T21:58:22;1.10;99.90
17170;DHT22;8700;48.222;16.342;2022-12-18T22:01:44;1.30;99.90
17170;DHT22;8700;48.222;16.342;2022-12-18T22:05:06;1.50;99.90
17170;DHT22;8700;48.222;16.342;2022-12-18T22:08:27;1.20;99.90
17170;DHT22;8700;48.222;16.342;2022-12-18T22:11:49;1.10;99.90
17170;DHT22;8700;48.222;16.342;2022-12-18T22:15:13;1.10;99.90
17170;DHT22;8700;48.222;16.342;2022-12-18T22:18:37;0.90;99.90
17170;DHT22;8700;48.222;16.342;2022-12-18T22:21:59;0.70;99.90
17170;DHT22;8700;48.222;16.342;2022-12-18T22:25:20;0.70;99.90
17170;DHT22;8700;48.222;16.342;2022-12-18T22:28:42;0.70;99.90
17170;DHT22;8700;48.222;16.342;2022-12-18T22:32:25;0.70;99.90
17170;DHT22;8700;48.222;16.342;2022-12-18T22:35:52;0.80;99.90
17170;DHT22;8700;48.222;16.342;2022-12-18T22:39:16;0.60;99.90
17170;DHT22;8700;48.222;16.342;2022-12-18T22:42:39;0.70;99.90
17170;DHT22;8700;48.222;16.342;2022-12-18T22:46:01;0.40;99.90
17170;DHT22;8700;48.222;16.342;2022-12-18T22:49:25;0.20;99.90